createdAt,value
2019-05-30T00:00:05.838Z,48.96
2019-05-30T00:02:23.719Z,50.54
2019-05-30T00:04:56.111Z,52.18
2019-05-30T00:07:28.075Z,51.58
2019-05-30T00:10:00.592Z,51.57
2019-05-30T00:12:32.492Z,51.60
2019-05-30T00:15:06.448Z,51.78
2019-05-30T00:17:38.556Z,52.05
2019-05-30T00:20:10.774Z,52.94
2019-05-30T00:22:42.846Z,53.88
2019-05-30T00:25:14.912Z,53.75
2019-05-30T00:27:46.779Z,55.02
2019-05-30T00:30:24.473Z,54.11
2019-05-30T00:32:52.325Z,55.36
2019-05-30T00:35:24.223Z,54.79
2019-05-30T00:37:56.115Z,53.62
2019-05-30T00:40:28.002Z,53.15
2019-05-30T00:43:00.075Z,50.25
2019-05-30T00:45:31.997Z,50.16
2019-05-30T00:48:04.487Z,49.57
2019-05-30T00:50:36.283Z,48.97
2019-05-30T00:53:08.349Z,49.36
2019-05-30T00:55:40.382Z,49.99
2019-05-30T00:58:12.256Z,50.07
2019-05-30T01:00:44.489Z,51.46
2019-05-30T01:03:16.376Z,49.86
2019-05-30T01:05:48.230Z,51.34
2019-05-30T01:08:20.022Z,51.89
2019-05-30T01:10:51.891Z,51.88
2019-05-30T01:13:23.681Z,52.03
2019-05-30T01:15:56.837Z,52.48
2019-05-30T01:18:28.817Z,52.59
2019-05-30T01:21:01.320Z,53.80
2019-05-30T01:23:34.272Z,54.81
2019-05-30T01:26:06.064Z,55.89
2019-05-30T01:28:37.951Z,56.50
2019-05-30T01:31:11.543Z,56.93
2019-05-30T01:33:43.404Z,57.11
2019-05-30T01:36:15.213Z,56.91
2019-05-30T01:38:47.076Z,57.94
2019-05-30T01:41:19.257Z,57.51
2019-05-30T01:43:51.140Z,57.23
2019-05-30T01:46:22.951Z,57.28
2019-05-30T01:48:54.816Z,56.68
2019-05-30T01:51:26.611Z,56.30
2019-05-30T01:53:58.439Z,56.19
2019-05-30T01:56:30.241Z,56.24
2019-05-30T01:59:02.662Z,57.19
2019-05-30T02:01:34.615Z,57.04
2019-05-30T02:04:07.404Z,57.08
2019-05-30T02:06:39.363Z,58.19
2019-05-30T02:09:11.764Z,58.10
2019-05-30T02:11:43.733Z,58.10
2019-05-30T02:14:15.581Z,58.35
2019-05-30T02:16:47.365Z,57.83
2019-05-30T02:19:20.351Z,59.08
2019-05-30T02:21:52.130Z,59.51
2019-05-30T02:24:24.026Z,59.35
2019-05-30T02:26:55.880Z,59.96
2019-05-30T02:29:27.759Z,61.20
2019-05-30T02:32:00.953Z,60.91
2019-05-30T02:34:33.109Z,60.33
2019-05-30T02:37:06.116Z,59.34
2019-05-30T02:39:38.766Z,58.78
2019-05-30T02:42:11.681Z,58.79
2019-05-30T02:44:43.673Z,59.34
2019-05-30T02:47:15.480Z,59.26
2019-05-30T02:49:48.399Z,58.93
2019-05-30T02:52:20.284Z,59.25
2019-05-30T02:54:52.149Z,59.28
2019-05-30T02:57:24.026Z,60.43
2019-05-30T02:59:55.847Z,60.48
2019-05-30T03:02:27.623Z,61.83
2019-05-30T03:04:59.472Z,60.48
2019-05-30T03:07:31.481Z,60.24
2019-05-30T03:10:05.099Z,60.53
2019-05-30T03:12:37.177Z,60.65
2019-05-30T03:15:12.211Z,60.43
2019-05-30T03:17:42.740Z,60.63
2019-05-30T03:20:22.561Z,60.31
2019-05-30T03:22:49.274Z,61.37
2019-05-30T03:25:21.166Z,60.67
2019-05-30T03:27:53.031Z,60.70
2019-05-30T03:30:27.984Z,60.52
2019-05-30T03:33:07.322Z,60.27
2019-05-30T03:35:40.983Z,60.01
2019-05-30T03:38:07.770Z,60.19
2019-05-30T03:40:39.204Z,60.00
2019-05-30T03:43:11.732Z,60.17
2019-05-30T03:45:45.392Z,60.11
2019-05-30T03:48:18.598Z,60.17
2019-05-30T03:50:52.589Z,59.35
2019-05-30T03:53:24.646Z,59.41
2019-05-30T03:56:02.286Z,59.80
2019-05-30T03:58:45.100Z,59.41
2019-05-30T04:01:22.505Z,59.77
2019-05-30T04:04:01.187Z,60.09
2019-05-30T04:06:37.191Z,59.76
2019-05-30T04:09:12.396Z,59.74
2019-05-30T04:12:10.629Z,59.48
2019-05-30T04:14:43.776Z,59.69
2019-05-30T04:17:17.664Z,59.20
2019-05-30T04:19:49.202Z,59.63
2019-05-30T04:22:21.109Z,59.83
2019-05-30T04:24:52.967Z,58.57
2019-05-30T04:27:24.774Z,58.06
2019-05-30T04:29:56.595Z,57.71
2019-05-30T04:32:28.423Z,57.79
2019-05-30T04:35:00.228Z,57.95
2019-05-30T04:37:32.365Z,56.16
2019-05-30T04:40:04.259Z,55.36
2019-05-30T04:42:36.446Z,56.35
2019-05-30T04:45:09.638Z,55.81
2019-05-30T04:47:41.888Z,53.95
2019-05-30T04:50:14.405Z,54.54
2019-05-30T04:52:46.689Z,53.29
2019-05-30T04:55:22.323Z,52.67
2019-05-30T04:57:52.212Z,53.30
2019-05-30T05:00:24.004Z,52.19
2019-05-30T05:02:56.376Z,51.14
2019-05-30T05:05:28.183Z,52.21
2019-05-30T05:08:00.002Z,51.98
2019-05-30T05:10:31.781Z,50.24
2019-05-30T05:13:03.694Z,50.77
2019-05-30T05:15:35.510Z,51.11
2019-05-30T05:18:07.669Z,51.83
2019-05-30T05:20:39.475Z,52.15
2019-05-30T05:23:11.328Z,50.80
2019-05-30T05:25:43.188Z,51.29
2019-05-30T05:28:15.750Z,51.05
2019-05-30T05:30:48.294Z,51.35
2019-05-30T05:33:20.549Z,51.53
2019-05-30T05:35:53.542Z,51.24
2019-05-30T05:38:25.407Z,51.15
2019-05-30T05:40:57.209Z,52.17
2019-05-30T05:43:29.014Z,52.91
2019-05-30T05:46:00.810Z,52.15
2019-05-30T05:48:32.681Z,52.66
2019-05-30T05:51:04.722Z,50.77
2019-05-30T05:53:36.676Z,51.18
2019-05-30T05:56:08.469Z,51.43
2019-05-30T05:58:40.350Z,51.49
2019-05-30T06:01:12.230Z,51.04
2019-05-30T06:03:44.229Z,51.84
2019-05-30T06:06:17.155Z,50.76
2019-05-30T06:08:49.133Z,49.95
2019-05-30T06:11:21.014Z,49.02
2019-05-30T06:13:52.810Z,48.83
2019-05-30T06:16:24.673Z,49.80
2019-05-30T06:18:56.480Z,49.72
2019-05-30T06:21:28.295Z,50.78
2019-05-30T06:24:01.151Z,49.42
2019-05-30T06:26:33.024Z,48.61
2019-05-30T06:29:04.926Z,46.25
2019-05-30T06:31:36.784Z,43.48
2019-05-30T06:34:08.570Z,44.07
2019-05-30T06:36:40.373Z,44.34
2019-05-30T06:39:12.187Z,42.64
2019-05-30T06:42:15.295Z,41.82
2019-05-30T06:44:52.642Z,43.59
2019-05-30T06:47:24.535Z,43.96
2019-05-30T06:49:56.346Z,42.92
2019-05-30T06:52:29.158Z,43.99
2019-05-30T06:55:01.089Z,43.26
2019-05-30T06:57:34.099Z,42.98
2019-05-30T07:00:07.245Z,43.29
2019-05-30T07:02:39.206Z,43.30
2019-05-30T07:05:11.918Z,40.93
2019-05-30T07:07:45.529Z,41.81
2019-05-30T07:10:17.732Z,40.85
2019-05-30T07:12:49.639Z,41.17
2019-05-30T07:15:21.605Z,40.50
2019-05-30T07:17:53.475Z,39.94
2019-05-30T07:20:25.593Z,40.59
2019-05-30T07:22:57.521Z,40.18
2019-05-30T07:25:29.967Z,40.34
2019-05-30T07:28:01.789Z,40.59
2019-05-30T07:30:34.231Z,41.76
2019-05-30T07:33:06.173Z,39.83
2019-05-30T07:35:38.330Z,40.92
2019-05-30T07:38:10.379Z,41.26
2019-05-30T07:40:42.226Z,41.23
2019-05-30T07:43:14.100Z,41.02
2019-05-30T07:45:57.397Z,40.85
2019-05-30T07:48:19.483Z,40.01
2019-05-30T07:50:52.102Z,35.52
2019-05-30T07:53:24.507Z,35.28
2019-05-30T07:55:56.357Z,35.11
2019-05-30T07:58:29.082Z,33.54
2019-05-30T08:01:00.870Z,35.53
2019-05-30T08:03:34.699Z,35.31
2019-05-30T08:06:07.219Z,34.76
2019-05-30T08:08:39.008Z,33.54
2019-05-30T08:11:12.066Z,33.30
2019-05-30T08:13:43.940Z,33.34
2019-05-30T08:16:15.758Z,32.72
2019-05-30T08:18:47.702Z,34.33
2019-05-30T08:21:19.501Z,32.85
2019-05-30T08:23:51.374Z,33.66
2019-05-30T08:26:23.168Z,32.91
2019-05-30T08:28:56.013Z,32.91
2019-05-30T08:31:28.583Z,34.26
2019-05-30T08:34:00.557Z,33.68
2019-05-30T08:36:32.831Z,33.89
2019-05-30T08:39:06.575Z,32.26
2019-05-30T08:41:39.474Z,34.53
2019-05-30T08:44:11.410Z,34.00
2019-05-30T08:46:43.212Z,33.13
2019-05-30T08:49:14.996Z,32.95
2019-05-30T08:51:46.805Z,34.16
2019-05-30T08:54:18.693Z,33.97
2019-05-30T08:56:50.512Z,32.36
2019-05-30T08:59:22.368Z,33.42
2019-05-30T09:01:54.186Z,34.57
2019-05-30T09:04:26.164Z,32.30
2019-05-30T09:06:58.028Z,32.47
2019-05-30T09:09:29.907Z,33.27
2019-05-30T09:12:01.860Z,33.35
2019-05-30T09:14:33.785Z,32.24
2019-05-30T09:17:05.687Z,32.50
2019-05-30T09:19:38.452Z,33.98
2019-05-30T09:22:11.637Z,33.30
2019-05-30T09:24:44.055Z,32.04
2019-05-30T09:27:15.952Z,32.91
2019-05-30T09:29:48.272Z,31.82
2019-05-30T09:32:20.210Z,33.24
2019-05-30T09:34:52.974Z,33.02
2019-05-30T09:37:24.840Z,33.28
2019-05-30T09:39:56.623Z,32.63
2019-05-30T09:42:28.472Z,33.05
2019-05-30T09:45:01.345Z,34.87
2019-05-30T09:47:33.293Z,31.87
2019-05-30T09:50:05.975Z,31.54
2019-05-30T09:52:37.778Z,31.79
2019-05-30T09:55:09.925Z,30.72
2019-05-30T09:57:43.039Z,30.49
2019-05-30T10:00:17.487Z,32.01
2019-05-30T10:02:50.497Z,31.25
2019-05-30T10:05:24.661Z,30.40
2019-05-30T10:07:56.828Z,30.24
2019-05-30T10:10:28.889Z,31.20
2019-05-30T10:13:00.762Z,30.53
2019-05-30T10:15:32.710Z,29.52
2019-05-30T10:18:04.900Z,30.13
2019-05-30T10:20:36.781Z,30.18
2019-05-30T10:23:08.663Z,29.64
2019-05-30T10:25:40.575Z,28.58
2019-05-30T10:28:12.467Z,28.12
2019-05-30T10:30:50.939Z,27.47
2019-05-30T10:33:18.985Z,27.59
2019-05-30T10:35:51.651Z,28.81
2019-05-30T10:38:24.084Z,27.40
2019-05-30T10:40:56.096Z,28.57
2019-05-30T10:43:28.048Z,27.36
2019-05-30T10:45:59.926Z,28.62
2019-05-30T10:48:31.789Z,26.67
2019-05-30T10:51:03.745Z,25.34
2019-05-30T10:53:37.633Z,26.57
2019-05-30T10:56:09.184Z,26.80
2019-05-30T10:58:40.986Z,26.52
2019-05-30T11:01:12.943Z,26.46
2019-05-30T11:03:45.832Z,26.23
2019-05-30T11:06:30.470Z,26.34
2019-05-30T11:09:04.724Z,27.87
2019-05-30T11:11:37.249Z,27.43
2019-05-30T11:14:09.033Z,26.14
2019-05-30T11:16:41.027Z,25.17
2019-05-30T11:19:12.882Z,24.13
2019-05-30T11:21:44.671Z,24.96
2019-05-30T11:24:16.454Z,24.01
2019-05-30T11:26:50.443Z,24.80
2019-05-30T11:29:21.754Z,24.10
2019-05-30T11:31:54.888Z,25.51
2019-05-30T11:34:26.946Z,25.55
2019-05-30T11:36:59.327Z,25.51
2019-05-30T11:39:32.395Z,25.46
2019-05-30T11:42:04.273Z,25.53
2019-05-30T11:44:36.116Z,26.11
2019-05-30T11:47:08.088Z,25.38
2019-05-30T11:49:40.060Z,26.17
2019-05-30T11:52:13.492Z,26.18
2019-05-30T11:54:45.372Z,26.74
2019-05-30T11:57:17.145Z,26.83
2019-05-30T11:59:50.076Z,26.69
2019-05-30T12:02:22.037Z,27.17
2019-05-30T12:04:54.526Z,25.33
2019-05-30T12:07:35.913Z,27.31
2019-05-30T12:10:01.092Z,26.25
2019-05-30T12:12:33.158Z,25.96
2019-05-30T12:15:05.484Z,26.41
2019-05-30T12:17:37.431Z,25.97
2019-05-30T12:20:09.715Z,25.95
2019-05-30T12:22:41.724Z,25.40
2019-05-30T12:25:13.696Z,23.84
2019-05-30T12:27:45.570Z,23.23
2019-05-30T12:30:17.724Z,24.73
2019-05-30T12:32:52.242Z,25.13
2019-05-30T12:35:24.432Z,23.75
2019-05-30T12:38:01.592Z,25.13
2019-05-30T12:40:29.892Z,24.78
2019-05-30T12:43:03.708Z,25.52
2019-05-30T12:45:36.440Z,24.40
2019-05-30T12:48:08.444Z,24.86
2019-05-30T12:50:40.513Z,25.33
2019-05-30T12:53:12.393Z,25.62
2019-05-30T12:55:44.370Z,26.46
2019-05-30T12:58:16.251Z,26.52
2019-05-30T13:00:48.160Z,27.01
2019-05-30T13:03:20.035Z,27.42
2019-05-30T13:05:51.902Z,27.40
2019-05-30T13:08:23.701Z,27.72
2019-05-30T13:10:55.651Z,25.67
2019-05-30T13:13:27.501Z,26.68
2019-05-30T13:16:01.061Z,25.70
2019-05-30T13:18:34.512Z,25.81
2019-05-30T13:21:06.523Z,25.31
2019-05-30T13:23:39.395Z,26.21
2019-05-30T13:26:11.277Z,25.99
2019-05-30T13:28:44.591Z,26.00
2019-05-30T13:31:19.829Z,25.92
2019-05-30T13:33:52.112Z,26.63
2019-05-30T13:36:23.976Z,26.07
2019-05-30T13:38:57.035Z,25.01
2019-05-30T13:41:31.923Z,25.45
2019-05-30T13:44:06.832Z,25.50
2019-05-30T13:46:38.604Z,27.09
2019-05-30T13:49:10.906Z,24.28
2019-05-30T13:51:43.131Z,23.92
2019-05-30T13:54:15.121Z,22.48
2019-05-30T13:56:47.001Z,23.42
2019-05-30T13:59:19.800Z,24.98
2019-05-30T14:01:52.959Z,24.34
2019-05-30T14:04:25.443Z,23.69
2019-05-30T14:06:57.318Z,23.12
2019-05-30T14:09:30.385Z,22.46
2019-05-30T14:12:02.463Z,22.36
2019-05-30T14:14:34.685Z,22.13
2019-05-30T14:17:10.405Z,22.92
2019-05-30T14:19:41.575Z,21.13
2019-05-30T14:22:13.504Z,20.80
2019-05-30T14:24:45.283Z,21.50
2019-05-30T14:27:17.054Z,20.09
2019-05-30T14:29:48.843Z,19.16
2019-05-30T14:32:20.710Z,18.70
2019-05-30T14:34:52.558Z,18.33
2019-05-30T14:37:24.429Z,19.25
2019-05-30T14:39:56.215Z,19.46
2019-05-30T14:42:28.000Z,19.70
2019-05-30T14:44:59.784Z,18.74
2019-05-30T14:47:33.694Z,17.42
2019-05-30T14:50:08.981Z,17.34
2019-05-30T14:52:41.060Z,17.15
2019-05-30T14:55:13.416Z,17.62
2019-05-30T14:57:46.607Z,17.73
2019-05-30T15:00:19.268Z,16.50
2019-05-30T15:02:51.213Z,17.55
2019-05-30T15:05:23.166Z,16.86
2019-05-30T15:07:55.090Z,16.85
2019-05-30T15:10:26.890Z,17.72
2019-05-30T15:12:58.781Z,15.93
2019-05-30T15:15:30.599Z,15.23
2019-05-30T15:18:02.467Z,13.92
2019-05-30T15:20:34.416Z,14.57
2019-05-30T15:23:07.636Z,14.18
2019-05-30T15:25:39.594Z,13.28
2019-05-30T15:28:12.227Z,13.77
2019-05-30T15:30:44.191Z,15.38
2019-05-30T15:33:16.601Z,15.23
2019-05-30T15:35:49.478Z,14.34
2019-05-30T15:38:21.262Z,14.70
2019-05-30T15:40:53.066Z,13.58
2019-05-30T15:43:24.947Z,14.20
2019-05-30T15:45:56.812Z,15.14
2019-05-30T15:48:28.622Z,16.77
2019-05-30T15:51:00.500Z,17.31
2019-05-30T15:53:32.367Z,18.21
2019-05-30T15:56:04.489Z,18.08
2019-05-30T15:58:37.586Z,17.88
2019-05-30T16:01:09.842Z,16.87
2019-05-30T16:03:41.734Z,16.40
2019-05-30T16:06:14.463Z,15.38
2019-05-30T16:08:46.349Z,14.34
2019-05-30T16:11:19.109Z,14.80
2019-05-30T16:13:50.990Z,14.25
2019-05-30T16:16:38.794Z,14.17
2019-05-30T16:18:56.462Z,13.25
2019-05-30T16:21:28.335Z,13.82
2019-05-30T16:24:00.184Z,14.39
2019-05-30T16:26:32.072Z,15.57
2019-05-30T16:29:04.096Z,16.50
2019-05-30T16:31:35.950Z,18.26
2019-05-30T16:34:08.098Z,18.57
2019-05-30T16:36:40.514Z,19.86
2019-05-30T16:39:12.357Z,20.31
2019-05-30T16:41:44.222Z,20.89
2019-05-30T16:44:16.250Z,21.75
2019-05-30T16:46:48.113Z,21.10
2019-05-30T16:49:21.094Z,19.79
2019-05-30T16:51:52.942Z,20.62
2019-05-30T16:54:24.744Z,22.31
2019-05-30T16:56:56.606Z,22.33
2019-05-30T16:59:28.497Z,22.38
2019-05-30T17:02:00.291Z,22.70
2019-05-30T17:04:32.158Z,23.29
2019-05-30T17:07:04.082Z,24.42
2019-05-30T17:09:35.946Z,24.14
2019-05-30T17:12:08.085Z,23.96
2019-05-30T17:14:39.963Z,24.79
2019-05-30T17:17:11.832Z,25.58
2019-05-30T17:19:43.692Z,25.99
2019-05-30T17:22:16.602Z,24.75
2019-05-30T17:24:48.525Z,25.24
2019-05-30T17:27:20.321Z,25.02
2019-05-30T17:29:52.177Z,25.57
2019-05-30T17:32:23.980Z,26.22
2019-05-30T17:34:55.838Z,26.84
2019-05-30T17:37:28.520Z,26.04
2019-05-30T17:40:00.411Z,26.86
2019-05-30T17:42:32.275Z,27.53
2019-05-30T17:45:05.039Z,26.94
2019-05-30T17:47:37.501Z,27.29
2019-05-30T17:50:09.783Z,27.31
2019-05-30T17:52:41.728Z,27.50
2019-05-30T17:55:13.587Z,28.01
2019-05-30T17:57:45.461Z,28.39
2019-05-30T18:00:17.748Z,28.17
2019-05-30T18:02:50.536Z,27.86
2019-05-30T18:05:24.477Z,28.09
2019-05-30T18:07:56.461Z,28.72
2019-05-30T18:10:29.035Z,29.05
2019-05-30T18:13:00.983Z,29.14
2019-05-30T18:15:32.908Z,29.81
2019-05-30T18:18:05.692Z,30.21
2019-05-30T18:20:47.656Z,30.72
2019-05-30T18:23:11.968Z,30.92
2019-05-30T18:25:43.823Z,31.54
2019-05-30T18:28:15.719Z,31.44
2019-05-30T18:30:47.588Z,32.25
2019-05-30T18:33:19.409Z,32.02
2019-05-30T18:35:51.296Z,32.31
2019-05-30T18:38:24.253Z,33.22
2019-05-30T18:41:10.165Z,33.98
2019-05-30T18:43:30.837Z,34.84
2019-05-30T18:46:02.835Z,35.05
2019-05-30T18:48:34.713Z,34.65
2019-05-30T18:51:06.523Z,34.97
2019-05-30T18:53:38.728Z,37.64
2019-05-30T18:56:10.746Z,38.04
2019-05-30T18:58:42.741Z,38.58
2019-05-30T19:01:14.834Z,40.53
2019-05-30T19:03:47.142Z,41.33
2019-05-30T19:06:18.938Z,41.07
2019-05-30T19:08:50.822Z,41.19
2019-05-30T19:11:28.113Z,41.02
2019-05-30T19:13:56.668Z,42.43
2019-05-30T19:16:28.575Z,42.40
2019-05-30T19:19:00.481Z,42.41
2019-05-30T19:21:34.056Z,43.17
2019-05-30T19:24:06.243Z,42.56
2019-05-30T19:26:38.289Z,42.89
2019-05-30T19:29:10.209Z,43.33
2019-05-30T19:31:42.124Z,43.33
2019-05-30T19:34:14.101Z,42.78
2019-05-30T19:36:46.093Z,44.73
2019-05-30T19:39:17.989Z,45.00
2019-05-30T19:41:56.766Z,45.16
2019-05-30T19:44:23.509Z,46.51
2019-05-30T19:46:55.369Z,46.83
2019-05-30T19:49:28.293Z,45.34
2019-05-30T19:52:00.376Z,45.18
2019-05-30T19:54:33.104Z,46.00
2019-05-30T19:57:06.070Z,46.88
2019-05-30T19:59:39.875Z,46.21
2019-05-30T20:02:12.349Z,45.86
2019-05-30T20:04:44.227Z,47.32
2019-05-30T20:07:16.185Z,47.95
2019-05-30T20:10:00.477Z,47.68
2019-05-30T20:12:21.607Z,48.51
2019-05-30T20:14:53.584Z,49.24
2019-05-30T20:17:30.020Z,48.73
2019-05-30T20:20:01.350Z,48.33
2019-05-30T20:22:33.944Z,48.18
2019-05-30T20:25:08.327Z,48.26
2019-05-30T20:27:40.877Z,48.69
2019-05-30T20:30:13.183Z,48.06
2019-05-30T20:32:45.060Z,48.57
2019-05-30T20:35:16.975Z,49.49
2019-05-30T20:37:48.871Z,49.48
2019-05-30T20:40:20.832Z,50.27
2019-05-30T20:42:52.700Z,50.29
2019-05-30T20:45:24.595Z,50.11
2019-05-30T20:47:56.470Z,50.30
2019-05-30T20:50:28.432Z,49.82
2019-05-30T20:53:00.286Z,49.84
2019-05-30T20:55:32.198Z,50.04
2019-05-30T20:58:05.087Z,51.40
2019-05-30T21:00:39.820Z,51.62
2019-05-30T21:03:11.971Z,52.18
2019-05-30T21:05:45.963Z,51.68
2019-05-30T21:08:17.912Z,52.72
2019-05-30T21:10:50.683Z,52.76
2019-05-30T21:13:22.551Z,52.79
2019-05-30T21:15:55.252Z,52.68
2019-05-30T21:18:28.824Z,53.52
2019-05-30T21:21:00.709Z,53.66
2019-05-30T21:23:32.576Z,53.62
2019-05-30T21:26:04.527Z,53.60
2019-05-30T21:28:36.657Z,53.62
2019-05-30T21:31:08.454Z,53.22
2019-05-30T21:33:41.612Z,53.06
2019-05-30T21:36:13.831Z,53.37
2019-05-30T21:38:46.081Z,53.24
2019-05-30T21:41:17.910Z,52.30
2019-05-30T21:43:49.703Z,52.57
2019-05-30T21:46:21.715Z,53.14
2019-05-30T21:48:53.510Z,53.16
2019-05-30T21:51:25.415Z,53.23
2019-05-30T21:53:57.246Z,53.91
2019-05-30T21:56:29.216Z,54.23
2019-05-30T21:59:01.080Z,55.29
2019-05-30T22:01:34.921Z,55.29
2019-05-30T22:04:07.299Z,54.95
2019-05-30T22:06:39.166Z,54.52
2019-05-30T22:09:11.477Z,55.63
2019-05-30T22:11:43.676Z,54.43
2019-05-30T22:14:15.580Z,54.25
2019-05-30T22:16:47.914Z,54.31
2019-05-30T22:19:19.891Z,54.31
2019-05-30T22:21:52.323Z,54.38
2019-05-30T22:24:24.306Z,53.56
2019-05-30T22:26:56.172Z,53.56
2019-05-30T22:29:28.038Z,54.69
2019-05-30T22:32:00.114Z,54.69
2019-05-30T22:34:31.988Z,54.25
2019-05-30T22:37:03.821Z,54.01
2019-05-30T22:39:35.704Z,54.15
2019-05-30T22:42:07.905Z,54.77
2019-05-30T22:44:39.759Z,54.77
2019-05-30T22:47:11.541Z,54.74
2019-05-30T22:49:44.533Z,55.23
2019-05-30T22:52:16.499Z,56.51
2019-05-30T22:54:49.088Z,56.20
2019-05-30T22:57:20.976Z,56.18
2019-05-30T22:59:53.093Z,55.96
2019-05-30T23:02:25.002Z,56.02
2019-05-30T23:04:56.878Z,55.33
2019-05-30T23:07:28.847Z,55.33
2019-05-30T23:10:00.702Z,56.03
2019-05-30T23:12:32.770Z,56.03
2019-05-30T23:15:04.956Z,56.19
2019-05-30T23:17:36.820Z,55.86
2019-05-30T23:20:09.167Z,55.24
2019-05-30T23:22:41.440Z,55.24
2019-05-30T23:25:13.302Z,55.07
2019-05-30T23:27:45.173Z,55.27
2019-05-30T23:30:17.233Z,55.27
2019-05-30T23:32:50.447Z,54.82
2019-05-30T23:35:22.379Z,55.02
2019-05-30T23:37:54.725Z,56.19
2019-05-30T23:40:26.662Z,56.41
2019-05-30T23:42:59.247Z,56.58
2019-05-30T23:45:31.150Z,57.72
2019-05-30T23:48:03.106Z,58.52
2019-05-30T23:50:34.971Z,58.17
2019-05-30T23:53:06.845Z,57.65
2019-05-30T23:55:38.716Z,57.74
2019-05-30T23:58:10.518Z,57.67
